createdAt,value
2018-03-21T00:01:16.531Z,80.63
2018-03-21T00:03:42.757Z,80.32
2018-03-21T00:06:08.855Z,80.84
2018-03-21T00:08:34.900Z,80.50
2018-03-21T00:11:01.174Z,80.98
2018-03-21T00:13:27.242Z,81.04
2018-03-21T00:15:53.476Z,80.92
2018-03-21T00:18:19.509Z,80.82
2018-03-21T00:20:45.550Z,80.59
2018-03-21T00:23:11.636Z,81.13
2018-03-21T00:25:37.652Z,80.98
2018-03-21T00:28:03.975Z,80.99
2018-03-21T00:30:30.001Z,80.99
2018-03-21T00:32:56.036Z,81.05
2018-03-21T00:35:22.324Z,81.46
2018-03-21T00:37:48.353Z,81.63
2018-03-21T00:40:14.579Z,81.10
2018-03-21T00:42:40.611Z,81.62
2018-03-21T00:45:06.647Z,81.57
2018-03-21T00:47:32.683Z,81.20
2018-03-21T00:49:58.724Z,81.09
2018-03-21T00:52:24.871Z,81.01
2018-03-21T00:54:50.919Z,81.67
2018-03-21T00:57:16.940Z,81.41
2018-03-21T00:59:43.022Z,81.82
2018-03-21T01:02:09.234Z,82.04
2018-03-21T01:04:35.300Z,81.80
2018-03-21T01:07:01.381Z,81.80
2018-03-21T01:09:27.463Z,82.03
2018-03-21T01:11:53.759Z,81.84
2018-03-21T01:14:19.818Z,81.63
2018-03-21T01:16:45.866Z,81.91
2018-03-21T01:19:11.887Z,82.10
2018-03-21T01:21:37.926Z,82.07
2018-03-21T01:24:03.983Z,81.95
2018-03-21T01:26:30.153Z,82.21
2018-03-21T01:28:56.221Z,81.90
2018-03-21T01:31:22.795Z,82.44
2018-03-21T01:33:48.836Z,82.63
2018-03-21T01:36:14.889Z,82.16
2018-03-21T01:38:41.092Z,82.46
2018-03-21T01:41:07.139Z,82.61
2018-03-21T01:43:33.348Z,82.46
2018-03-21T01:45:59.391Z,82.81
2018-03-21T01:48:25.492Z,83.00
2018-03-21T01:50:51.550Z,82.78
2018-03-21T01:53:17.579Z,82.51
2018-03-21T01:55:43.840Z,82.27
2018-03-21T01:58:09.899Z,82.53
2018-03-21T02:00:50.889Z,82.52
2018-03-21T02:03:16.920Z,82.26
2018-03-21T02:05:43.060Z,82.22
2018-03-21T02:08:09.094Z,82.51
2018-03-21T02:10:35.120Z,82.26
2018-03-21T02:13:01.207Z,82.37
2018-03-21T02:15:27.270Z,82.50
2018-03-21T02:17:53.328Z,82.23
2018-03-21T02:20:19.343Z,82.42
2018-03-21T02:22:45.396Z,82.39
2018-03-21T02:25:11.430Z,82.16
2018-03-21T02:27:37.633Z,82.59
2018-03-21T02:30:03.682Z,83.04
2018-03-21T02:32:29.768Z,82.82
2018-03-21T02:34:55.835Z,83.22
2018-03-21T02:37:21.904Z,83.10
2018-03-21T02:39:48.159Z,82.99
2018-03-21T02:42:14.202Z,83.29
2018-03-21T02:44:40.281Z,82.94
2018-03-21T02:47:06.377Z,82.89
2018-03-21T02:49:32.433Z,83.06
2018-03-21T02:51:58.657Z,82.99
2018-03-21T02:54:24.700Z,82.94
2018-03-21T02:56:50.907Z,83.05
2018-03-21T02:59:16.962Z,82.81
2018-03-21T03:01:43.035Z,83.33
2018-03-21T03:04:09.087Z,83.61
2018-03-21T03:06:35.123Z,83.74
2018-03-21T03:09:01.280Z,83.72
2018-03-21T03:11:27.384Z,83.70
2018-03-21T03:13:53.540Z,83.52
2018-03-21T03:16:19.693Z,83.73
2018-03-21T03:18:45.773Z,83.57
2018-03-21T03:21:11.962Z,83.67
2018-03-21T03:23:37.991Z,83.32
2018-03-21T03:26:04.032Z,83.44
2018-03-21T03:28:30.088Z,83.95
2018-03-21T03:30:56.140Z,83.77
2018-03-21T03:33:22.321Z,83.65
2018-03-21T03:35:48.402Z,83.67
2018-03-21T03:38:14.543Z,83.88
2018-03-21T03:40:40.574Z,83.42
2018-03-21T03:43:06.954Z,83.67
2018-03-21T03:45:32.966Z,83.89
2018-03-21T03:47:59.044Z,83.78
2018-03-21T03:50:25.238Z,83.74
2018-03-21T03:52:51.335Z,83.79
2018-03-21T03:55:17.466Z,83.50
2018-03-21T03:57:43.560Z,83.64
2018-03-21T04:00:09.563Z,83.74
2018-03-21T04:02:35.645Z,83.77
2018-03-21T04:05:01.836Z,83.67
2018-03-21T04:07:27.882Z,83.67
2018-03-21T04:12:47.036Z,84.35
2018-03-21T04:15:13.144Z,84.43
2018-03-21T04:17:39.240Z,84.39
2018-03-21T04:20:05.257Z,84.51
2018-03-21T04:22:31.644Z,83.64
2018-03-21T04:24:57.667Z,83.80
2018-03-21T04:27:23.712Z,83.52
2018-03-21T04:29:49.949Z,83.12
2018-03-21T04:32:16.002Z,83.47
2018-03-21T04:34:42.089Z,83.25
2018-03-21T04:37:08.122Z,83.70
2018-03-21T04:39:34.164Z,83.34
2018-03-21T04:42:00.384Z,83.70
2018-03-21T04:44:26.440Z,83.42
2018-03-21T04:46:52.599Z,83.69
2018-03-21T04:49:19.117Z,83.36
2018-03-21T04:51:45.150Z,83.57
2018-03-21T04:54:11.332Z,83.12
2018-03-21T04:56:37.687Z,83.55
2018-03-21T04:59:03.722Z,83.50
2018-03-21T05:01:29.823Z,83.60
2018-03-21T05:03:56.203Z,84.05
2018-03-21T05:06:22.256Z,84.00
2018-03-21T05:08:48.405Z,84.05
2018-03-21T05:11:14.476Z,84.26
2018-03-21T05:13:40.548Z,84.31
2018-03-21T05:16:06.790Z,84.79
2018-03-21T05:18:32.845Z,84.65
2018-03-21T05:20:58.888Z,84.26
2018-03-21T05:23:24.948Z,84.41
2018-03-21T05:25:51.199Z,84.82
2018-03-21T05:28:17.624Z,84.65
2018-03-21T05:30:43.742Z,84.37
2018-03-21T05:33:09.805Z,84.35
2018-03-21T05:35:35.867Z,84.21
2018-03-21T05:38:01.902Z,84.35
2018-03-21T05:40:28.322Z,84.41
2018-03-21T05:42:54.530Z,84.75
2018-03-21T05:45:20.545Z,85.08
2018-03-21T05:47:46.676Z,84.51
2018-03-21T05:50:12.805Z,85.04
2018-03-21T05:52:38.898Z,85.55
2018-03-21T05:55:04.983Z,85.18
2018-03-21T05:57:31.048Z,85.21
2018-03-21T05:59:57.508Z,85.07
2018-03-21T06:02:23.635Z,85.33
2018-03-21T06:04:49.668Z,85.68
2018-03-21T06:07:15.758Z,86.02
2018-03-21T06:09:41.835Z,85.78
2018-03-21T06:12:08.017Z,85.92
2018-03-21T06:14:34.082Z,85.93
2018-03-21T06:17:00.120Z,85.73
2018-03-21T06:19:26.167Z,85.45
2018-03-21T06:21:52.258Z,85.17
2018-03-21T06:24:18.479Z,85.00
2018-03-21T06:26:44.500Z,84.56
2018-03-21T06:29:10.599Z,84.10
2018-03-21T06:31:36.630Z,83.97
2018-03-21T06:34:02.639Z,83.78
2018-03-21T06:36:28.714Z,83.16
2018-03-21T06:38:54.737Z,82.92
2018-03-21T06:41:20.853Z,82.53
2018-03-21T06:43:46.884Z,82.47
2018-03-21T06:46:13.069Z,82.23
2018-03-21T06:48:39.134Z,82.13
2018-03-21T06:51:05.146Z,81.68
2018-03-21T06:53:31.566Z,81.57
2018-03-21T06:55:57.632Z,81.36
2018-03-21T06:58:23.688Z,81.27
2018-03-21T07:00:49.784Z,80.76
2018-03-21T07:03:15.848Z,80.37
2018-03-21T07:05:41.918Z,79.88
2018-03-21T07:08:08.012Z,79.37
2018-03-21T07:10:34.090Z,78.84
2018-03-21T07:13:00.166Z,78.86
2018-03-21T07:15:38.490Z,78.30
2018-03-21T07:18:04.923Z,77.88
2018-03-21T07:20:31.016Z,78.05
2018-03-21T07:22:57.073Z,77.56
2018-03-21T07:25:23.160Z,77.35
2018-03-21T07:27:49.274Z,77.31
2018-03-21T07:30:15.376Z,77.25
2018-03-21T07:32:41.398Z,76.93
2018-03-21T07:35:07.448Z,76.58
2018-03-21T07:37:33.535Z,76.11
2018-03-21T07:39:59.586Z,76.15
2018-03-21T07:42:25.934Z,75.29
2018-03-21T07:44:51.993Z,75.09
2018-03-21T07:47:18.043Z,75.19
2018-03-21T07:49:44.281Z,74.65
2018-03-21T07:52:10.330Z,74.76
2018-03-21T07:54:37.013Z,74.75
2018-03-21T07:57:03.085Z,74.15
2018-03-21T07:59:29.152Z,75.05
2018-03-21T08:01:55.200Z,74.55
2018-03-21T08:04:21.216Z,74.50
2018-03-21T08:06:47.262Z,74.32
2018-03-21T08:09:13.285Z,73.70
2018-03-21T08:11:39.623Z,73.40
2018-03-21T08:14:05.674Z,73.28
2018-03-21T08:16:31.707Z,73.10
2018-03-21T08:18:57.968Z,73.00
2018-03-21T08:21:24.062Z,72.47
2018-03-21T08:23:50.131Z,71.89
2018-03-21T08:26:16.405Z,71.55
2018-03-21T08:28:42.480Z,71.48
2018-03-21T08:31:08.511Z,71.23
2018-03-21T08:33:34.593Z,71.02
2018-03-21T08:36:00.686Z,71.36
2018-03-21T08:38:26.829Z,71.60
2018-03-21T08:40:52.865Z,71.51
2018-03-21T08:43:18.909Z,71.57
2018-03-21T08:45:44.970Z,72.34
2018-03-21T08:48:11.226Z,72.31
2018-03-21T08:50:37.243Z,72.51
2018-03-21T08:53:03.278Z,72.80
2018-03-21T08:55:29.500Z,72.45
2018-03-21T08:57:55.541Z,72.37
2018-03-21T09:00:21.853Z,72.58
2018-03-21T09:02:47.905Z,72.32
2018-03-21T09:05:13.975Z,71.97
2018-03-21T09:07:40.083Z,71.70
2018-03-21T09:10:06.134Z,71.78
2018-03-21T09:12:32.332Z,71.75
2018-03-21T09:14:58.492Z,71.77
2018-03-21T09:17:24.573Z,71.36
2018-03-21T09:19:50.607Z,71.02
2018-03-21T09:22:16.863Z,70.82
2018-03-21T09:24:42.915Z,71.09
2018-03-21T09:27:09.106Z,70.95
2018-03-21T09:29:35.213Z,70.83
2018-03-21T09:32:01.350Z,70.47
2018-03-21T09:34:27.567Z,70.17
2018-03-21T09:36:53.612Z,69.05
2018-03-21T09:39:19.960Z,69.19
2018-03-21T09:41:46.007Z,69.42
2018-03-21T09:44:12.130Z,69.60
2018-03-21T09:46:38.350Z,69.72
2018-03-21T09:49:04.395Z,68.87
2018-03-21T09:51:30.414Z,69.34
2018-03-21T09:53:56.504Z,68.17
2018-03-21T09:56:22.714Z,68.65
2018-03-21T09:58:48.880Z,68.96
2018-03-21T10:01:14.943Z,68.13
2018-03-21T10:03:41.000Z,68.66
2018-03-21T10:06:07.054Z,67.72
2018-03-21T10:08:33.168Z,68.55
2018-03-21T10:10:59.196Z,68.64
2018-03-21T10:13:25.363Z,68.22
2018-03-21T10:15:51.493Z,68.52
2018-03-21T10:18:17.546Z,68.84
2018-03-21T10:20:43.565Z,67.72
2018-03-21T10:23:09.756Z,66.67
2018-03-21T10:25:36.016Z,67.44
2018-03-21T10:28:02.184Z,67.18
2018-03-21T10:30:28.222Z,66.94
2018-03-21T10:32:54.309Z,66.58
2018-03-21T10:35:20.530Z,67.01
2018-03-21T10:37:46.627Z,67.05
2018-03-21T10:40:12.973Z,66.78
2018-03-21T10:42:39.044Z,66.11
2018-03-21T10:45:05.288Z,65.49
2018-03-21T10:47:31.353Z,65.91
2018-03-21T10:49:57.546Z,65.11
2018-03-21T10:52:23.616Z,64.72
2018-03-21T10:54:50.532Z,63.31
2018-03-21T10:57:16.604Z,62.97
2018-03-21T10:59:42.657Z,63.46
2018-03-21T11:02:13.717Z,63.42
2018-03-21T11:04:39.761Z,63.11
2018-03-21T11:07:05.941Z,61.75
2018-03-21T11:09:32.007Z,63.08
2018-03-21T11:11:58.108Z,62.64
2018-03-21T11:14:24.812Z,61.67
2018-03-21T11:16:51.562Z,61.98
2018-03-21T11:19:17.703Z,60.88
2018-03-21T11:21:43.747Z,60.77
2018-03-21T11:24:09.895Z,59.70
2018-03-21T11:26:35.961Z,59.57
2018-03-21T11:29:02.023Z,58.83
2018-03-21T11:31:28.046Z,58.15
2018-03-21T11:33:54.235Z,57.15
2018-03-21T11:36:20.351Z,55.89
2018-03-21T11:38:46.396Z,55.59
2018-03-21T11:41:12.452Z,53.57
2018-03-21T11:43:38.519Z,51.83
2018-03-21T11:46:19.442Z,50.45
2018-03-21T11:48:45.492Z,47.14
2018-03-21T11:51:11.633Z,43.73
2018-03-21T11:53:37.665Z,43.55
2018-03-21T11:56:03.831Z,45.76
2018-03-21T11:58:29.863Z,45.84
2018-03-21T12:00:55.928Z,44.33
2018-03-21T12:03:21.953Z,46.81
2018-03-21T12:05:48.246Z,48.32
2018-03-21T12:08:14.441Z,48.00
2018-03-21T12:10:40.544Z,44.45
2018-03-21T12:13:06.637Z,42.93
2018-03-21T12:15:32.841Z,43.52
2018-03-21T12:17:58.903Z,43.13
2018-03-21T12:20:24.936Z,44.03
2018-03-21T12:22:50.993Z,44.07
2018-03-21T12:25:17.015Z,43.44
2018-03-21T12:27:43.076Z,44.00
2018-03-21T12:30:09.082Z,43.56
2018-03-21T12:32:35.327Z,44.61
2018-03-21T12:35:01.395Z,44.48
2018-03-21T12:37:27.484Z,43.41
2018-03-21T12:39:53.659Z,42.63
2018-03-21T12:42:19.699Z,43.03
2018-03-21T12:44:46.665Z,42.46
2018-03-21T12:47:12.688Z,43.04
2018-03-21T12:49:38.868Z,42.69
2018-03-21T12:52:04.940Z,41.81
2018-03-21T12:54:31.144Z,42.00
2018-03-21T12:56:57.388Z,41.54
2018-03-21T12:59:23.450Z,41.65
2018-03-21T13:01:49.528Z,40.68
2018-03-21T13:04:15.639Z,40.48
2018-03-21T13:06:41.669Z,40.59
2018-03-21T13:09:07.842Z,40.41
2018-03-21T13:11:33.970Z,40.11
2018-03-21T13:14:00.010Z,40.52
2018-03-21T13:16:26.193Z,40.00
2018-03-21T13:18:52.227Z,39.96
2018-03-21T13:21:18.314Z,39.93
2018-03-21T13:23:44.644Z,39.58
2018-03-21T13:26:11.057Z,39.18
2018-03-21T13:28:37.116Z,38.91
2018-03-21T13:31:03.196Z,38.64
2018-03-21T13:33:29.259Z,38.81
2018-03-21T13:35:55.311Z,39.28
2018-03-21T13:38:21.399Z,39.32
2018-03-21T13:40:47.438Z,39.22
2018-03-21T13:43:13.498Z,39.14
2018-03-21T13:45:39.571Z,39.97
2018-03-21T13:48:05.589Z,39.75
2018-03-21T13:50:31.694Z,39.87
2018-03-21T13:52:57.790Z,40.25
2018-03-21T13:55:23.857Z,40.65
2018-03-21T13:57:50.131Z,40.18
2018-03-21T14:00:16.141Z,39.75
2018-03-21T14:02:42.221Z,38.85
2018-03-21T14:05:08.268Z,39.22
2018-03-21T14:07:34.344Z,38.30
2018-03-21T14:10:00.591Z,38.98
2018-03-21T14:12:26.678Z,39.11
2018-03-21T14:14:52.801Z,39.81
2018-03-21T14:17:18.852Z,39.68
2018-03-21T14:19:44.909Z,39.17
2018-03-21T14:22:10.985Z,38.25
2018-03-21T14:24:37.102Z,38.44
2018-03-21T14:27:03.121Z,39.16
2018-03-21T14:29:29.401Z,40.09
2018-03-21T14:31:55.482Z,41.12
2018-03-21T14:34:21.612Z,40.36
2018-03-21T14:36:48.025Z,41.29
2018-03-21T14:39:14.068Z,40.85
2018-03-21T14:41:40.145Z,40.74
2018-03-21T14:44:06.186Z,40.86
2018-03-21T14:46:32.246Z,45.39
2018-03-21T14:48:58.305Z,46.71
2018-03-21T14:51:24.330Z,47.07
2018-03-21T14:53:50.422Z,47.22
2018-03-21T14:56:16.469Z,47.16
2018-03-21T14:58:42.660Z,48.14
2018-03-21T15:01:08.720Z,48.31
2018-03-21T15:03:34.795Z,47.67
2018-03-21T15:06:00.965Z,46.67
2018-03-21T15:08:27.042Z,46.60
2018-03-21T15:10:53.231Z,46.92
2018-03-21T15:13:19.383Z,46.44
2018-03-21T15:15:45.458Z,47.12
2018-03-21T15:18:11.628Z,46.32
2018-03-21T15:20:53.016Z,47.84
2018-03-21T15:26:12.400Z,48.13
2018-03-21T15:28:38.452Z,48.64
2018-03-21T15:31:05.004Z,49.57
2018-03-21T15:33:31.076Z,47.68
2018-03-21T15:35:57.097Z,46.64
2018-03-21T15:38:23.167Z,47.63
2018-03-21T15:40:49.260Z,46.53
2018-03-21T15:43:15.684Z,46.91
2018-03-21T15:45:41.735Z,45.45
2018-03-21T15:48:07.805Z,45.31
2018-03-21T15:50:33.854Z,46.21
2018-03-21T15:52:59.935Z,46.33
2018-03-21T15:55:26.052Z,47.01
2018-03-21T15:57:52.104Z,48.09
2018-03-21T16:00:18.200Z,47.64
2018-03-21T16:02:44.319Z,47.64
2018-03-21T16:05:10.366Z,48.31
2018-03-21T16:07:36.459Z,48.77
2018-03-21T16:10:02.677Z,48.73
2018-03-21T16:12:28.785Z,48.50
2018-03-21T16:14:55.015Z,48.39
2018-03-21T16:17:21.072Z,49.15
2018-03-21T16:19:47.132Z,49.08
2018-03-21T16:22:13.302Z,49.89
2018-03-21T16:24:39.368Z,50.38
2018-03-21T16:27:05.407Z,51.42
2018-03-21T16:29:31.466Z,52.18
2018-03-21T16:31:57.660Z,52.18
2018-03-21T16:34:23.730Z,52.92
2018-03-21T16:36:49.889Z,53.61
2018-03-21T16:39:15.911Z,54.49
2018-03-21T16:41:42.349Z,54.72
2018-03-21T16:44:08.439Z,55.12
2018-03-21T16:46:34.494Z,55.76
2018-03-21T16:49:00.565Z,55.82
2018-03-21T16:51:26.614Z,56.62
2018-03-21T16:53:52.655Z,57.48
2018-03-21T16:56:18.668Z,57.49
2018-03-21T16:58:44.743Z,58.04
2018-03-21T17:01:10.822Z,58.23
2018-03-21T17:03:36.931Z,58.81
2018-03-21T17:06:17.915Z,59.74
2018-03-21T17:08:44.038Z,60.32
2018-03-21T17:11:10.098Z,60.96
2018-03-21T17:13:37.118Z,61.20
2018-03-21T17:16:03.171Z,61.36
2018-03-21T17:18:29.218Z,61.88
2018-03-21T17:20:55.453Z,61.89
2018-03-21T17:23:21.545Z,61.82
2018-03-21T17:25:48.044Z,62.36
2018-03-21T17:28:14.107Z,62.74
2018-03-21T17:30:40.328Z,62.97
2018-03-21T17:33:06.434Z,63.34
2018-03-21T17:35:32.950Z,63.44
2018-03-21T17:37:59.031Z,63.51
2018-03-21T17:40:25.109Z,63.89
2018-03-21T17:42:51.228Z,64.25
2018-03-21T17:45:17.495Z,64.50
2018-03-21T17:47:43.561Z,65.02
2018-03-21T17:50:09.661Z,65.11
2018-03-21T17:52:35.739Z,65.35
2018-03-21T17:55:01.890Z,65.53
2018-03-21T17:57:28.037Z,65.53
2018-03-21T17:59:54.095Z,65.73
2018-03-21T18:02:20.132Z,65.82
2018-03-21T18:04:46.251Z,65.79
2018-03-21T18:07:12.315Z,65.80
2018-03-21T18:09:38.914Z,65.55
2018-03-21T18:12:05.324Z,65.53
2018-03-21T18:14:31.425Z,65.44
2018-03-21T18:16:57.638Z,65.53
2018-03-21T18:19:23.724Z,65.68
2018-03-21T18:21:50.850Z,65.49
2018-03-21T18:24:16.910Z,65.68
2018-03-21T18:26:43.003Z,65.81
2018-03-21T18:29:09.041Z,65.99
2018-03-21T18:31:35.354Z,66.17
2018-03-21T18:34:01.449Z,66.22
2018-03-21T18:36:27.570Z,66.22
2018-03-21T18:38:54.551Z,66.45
2018-03-21T18:41:20.645Z,66.49
2018-03-21T18:43:47.720Z,66.60
2018-03-21T18:46:13.859Z,66.73
2018-03-21T18:48:39.999Z,67.22
2018-03-21T18:51:06.285Z,67.30
2018-03-21T18:53:32.425Z,67.47
2018-03-21T18:55:58.571Z,67.76
2018-03-21T18:58:24.701Z,67.79
2018-03-21T19:00:50.839Z,68.05
2018-03-21T19:03:16.904Z,68.08
2018-03-21T19:05:42.961Z,68.27
2018-03-21T19:08:09.188Z,68.61
2018-03-21T19:10:35.353Z,69.05
2018-03-21T19:13:01.588Z,69.21
2018-03-21T19:15:28.683Z,69.24
2018-03-21T19:17:54.847Z,69.54
2018-03-21T19:20:21.046Z,69.59
2018-03-21T19:22:47.180Z,69.62
2018-03-21T19:25:13.497Z,69.83
2018-03-21T19:27:39.622Z,69.98
2018-03-21T19:30:05.791Z,70.25
2018-03-21T19:32:31.882Z,70.27
2018-03-21T19:34:58.073Z,70.40
2018-03-21T19:37:24.148Z,70.30
2018-03-21T19:39:50.463Z,70.30
2018-03-21T19:42:16.626Z,70.51
2018-03-21T19:44:42.724Z,70.53
2018-03-21T19:47:08.814Z,70.72
2018-03-21T19:49:34.910Z,70.84
2018-03-21T19:52:01.032Z,71.09
2018-03-21T19:54:27.161Z,71.27
2018-03-21T19:56:53.284Z,71.45
2018-03-21T19:59:20.410Z,71.68
2018-03-21T20:01:46.658Z,71.70
2018-03-21T20:04:12.955Z,71.65
2018-03-21T20:06:39.279Z,72.01
2018-03-21T20:09:05.419Z,71.93
2018-03-21T20:11:31.465Z,72.04
2018-03-21T20:13:57.543Z,72.21
2018-03-21T20:16:23.618Z,72.34
2018-03-21T20:18:49.648Z,72.51
2018-03-21T20:21:16.157Z,72.84
2018-03-21T20:23:42.251Z,73.14
2018-03-21T20:26:08.566Z,73.26
2018-03-21T20:28:34.623Z,73.40
2018-03-21T20:31:00.926Z,73.57
2018-03-21T20:33:28.332Z,73.74
2018-03-21T20:35:54.472Z,73.96
2018-03-21T20:38:20.626Z,73.98
2018-03-21T20:40:46.721Z,74.16
2018-03-21T20:43:13.762Z,74.47
2018-03-21T20:45:40.899Z,74.56
2018-03-21T20:48:07.017Z,74.70
2018-03-21T20:50:33.157Z,74.74
2018-03-21T20:52:59.207Z,74.93
2018-03-21T20:55:25.426Z,74.79
2018-03-21T20:57:51.494Z,74.87
2018-03-21T21:00:17.770Z,74.92
2018-03-21T21:02:44.794Z,74.87
2018-03-21T21:05:10.846Z,74.95
2018-03-21T21:07:36.973Z,74.92
2018-03-21T21:10:03.092Z,74.94
2018-03-21T21:12:29.407Z,75.10
2018-03-21T21:14:56.460Z,75.07
2018-03-21T21:17:22.594Z,74.90
2018-03-21T21:19:48.702Z,75.09
2018-03-21T21:22:14.915Z,75.30
2018-03-21T21:24:41.030Z,75.41
2018-03-21T21:27:07.109Z,75.60
2018-03-21T21:29:33.225Z,75.62
2018-03-21T21:31:59.285Z,75.62
2018-03-21T21:34:25.399Z,75.76
2018-03-21T21:36:51.719Z,75.89
2018-03-21T21:39:17.863Z,76.00
2018-03-21T21:41:44.362Z,76.00
2018-03-21T21:44:10.466Z,75.87
2018-03-21T21:46:36.547Z,75.98
2018-03-21T21:49:02.602Z,75.97
2018-03-21T21:51:28.645Z,75.80
2018-03-21T21:53:54.736Z,75.89
2018-03-21T21:56:20.812Z,75.86
2018-03-21T21:58:47.043Z,75.94
2018-03-21T22:01:13.889Z,75.95
2018-03-21T22:03:39.934Z,75.73
2018-03-21T22:06:06.105Z,75.90
2018-03-21T22:08:32.214Z,76.05
2018-03-21T22:10:58.332Z,76.03
2018-03-21T22:13:24.410Z,76.07
2018-03-21T22:15:51.128Z,75.94
2018-03-21T22:18:17.236Z,76.08
2018-03-21T22:20:43.331Z,76.12
2018-03-21T22:23:09.442Z,76.27
2018-03-21T22:25:35.528Z,76.57
2018-03-21T22:28:01.924Z,76.65
2018-03-21T22:30:28.012Z,76.65
2018-03-21T22:32:54.116Z,76.80
2018-03-21T22:35:20.386Z,76.84
2018-03-21T22:37:46.431Z,76.62
2018-03-21T22:40:12.772Z,76.44
2018-03-21T22:42:38.823Z,76.46
2018-03-21T22:45:04.974Z,76.68
2018-03-21T22:47:31.114Z,76.61
2018-03-21T22:49:57.166Z,76.61
2018-03-21T22:52:23.490Z,76.77
2018-03-21T22:54:49.824Z,76.74
2018-03-21T22:57:15.916Z,76.69
2018-03-21T22:59:42.058Z,76.77
2018-03-21T23:02:08.152Z,76.69
2018-03-21T23:04:34.230Z,76.58
2018-03-21T23:07:00.333Z,76.63
2018-03-21T23:09:26.438Z,76.59
2018-03-21T23:11:52.632Z,76.56
2018-03-21T23:14:18.683Z,76.52
2018-03-21T23:16:44.773Z,76.45
2018-03-21T23:19:10.925Z,76.61
2018-03-21T23:21:36.972Z,76.68
2018-03-21T23:24:03.076Z,76.64
2018-03-21T23:26:29.158Z,76.66
2018-03-21T23:28:55.217Z,76.95
2018-03-21T23:31:21.286Z,77.14
2018-03-21T23:33:47.373Z,77.27
2018-03-21T23:36:13.480Z,77.45
2018-03-21T23:38:39.639Z,77.49
2018-03-21T23:41:05.711Z,77.32
2018-03-21T23:43:31.968Z,77.38
2018-03-21T23:45:58.073Z,77.48
2018-03-21T23:48:24.102Z,77.36
2018-03-21T23:50:50.179Z,77.41
2018-03-21T23:53:16.195Z,77.49
2018-03-21T23:55:42.350Z,77.47
2018-03-21T23:58:08.376Z,77.44
